createdAt,value
2017-07-24T00:00:27.609Z,16.90
2017-07-24T00:02:55.123Z,16.90
2017-07-24T00:05:22.652Z,16.80
2017-07-24T00:07:50.163Z,16.70
2017-07-24T00:10:17.680Z,16.70
2017-07-24T00:12:45.208Z,16.60
2017-07-24T00:15:13.480Z,16.60
2017-07-24T00:17:41.016Z,16.60
2017-07-24T00:20:08.522Z,16.60
2017-07-24T00:22:36.048Z,16.50
2017-07-24T00:25:03.551Z,16.50
2017-07-24T00:27:31.077Z,16.40
2017-07-24T00:29:59.354Z,16.40
2017-07-24T00:32:28.603Z,16.30
2017-07-24T00:34:56.113Z,16.30
2017-07-24T00:37:24.407Z,16.30
2017-07-24T00:39:51.919Z,16.30
2017-07-24T00:42:19.462Z,16.20
2017-07-24T00:44:46.980Z,16.30
2017-07-24T00:47:15.261Z,16.20
2017-07-24T00:49:43.758Z,16.10
2017-07-24T00:52:11.280Z,16.10
2017-07-24T00:54:39.575Z,16.10
2017-07-24T00:57:07.094Z,16.10
2017-07-24T00:59:34.635Z,16.10
2017-07-24T01:02:02.149Z,16.10
2017-07-24T01:04:29.700Z,16.00
2017-07-24T01:06:57.981Z,15.90
2017-07-24T01:09:26.287Z,15.90
2017-07-24T01:11:53.826Z,15.90
2017-07-24T01:14:21.361Z,15.90
2017-07-24T01:16:49.649Z,15.90
2017-07-24T01:19:17.958Z,15.90
2017-07-24T01:21:45.472Z,15.90
2017-07-24T01:24:13.749Z,15.90
2017-07-24T01:26:42.069Z,15.80
2017-07-24T01:29:09.587Z,15.80
2017-07-24T01:31:37.985Z,15.70
2017-07-24T01:34:05.494Z,15.60
2017-07-24T01:36:33.028Z,15.60
2017-07-24T01:39:00.544Z,15.60
2017-07-24T01:41:28.857Z,15.40
2017-07-24T01:43:56.361Z,15.40
2017-07-24T01:46:23.897Z,15.30
2017-07-24T01:48:51.408Z,15.30
2017-07-24T01:51:18.952Z,15.20
2017-07-24T01:53:47.232Z,15.00
2017-07-24T01:56:14.760Z,15.00
2017-07-24T01:58:42.297Z,14.90
2017-07-24T02:01:09.846Z,14.80
2017-07-24T02:03:37.990Z,14.90
2017-07-24T02:06:05.519Z,14.90
2017-07-24T02:08:33.052Z,15.10
2017-07-24T02:11:00.570Z,15.10
2017-07-24T02:13:28.224Z,15.20
2017-07-24T02:15:55.741Z,15.20
2017-07-24T02:18:23.291Z,15.20
2017-07-24T02:20:50.807Z,15.20
2017-07-24T02:23:18.328Z,15.30
2017-07-24T02:25:45.865Z,15.30
2017-07-24T02:28:13.398Z,15.30
2017-07-24T02:30:40.934Z,15.20
2017-07-24T02:33:08.803Z,15.30
2017-07-24T02:35:36.385Z,15.30
2017-07-24T02:38:03.911Z,15.30
2017-07-24T02:40:32.217Z,15.20
2017-07-24T02:42:59.731Z,15.20
2017-07-24T02:45:28.018Z,15.00
2017-07-24T02:47:56.328Z,14.90
2017-07-24T02:50:23.870Z,14.90
2017-07-24T02:52:51.405Z,14.80
2017-07-24T02:55:18.924Z,14.80
2017-07-24T02:57:46.472Z,14.70
2017-07-24T03:00:13.989Z,14.60
2017-07-24T03:02:42.301Z,14.50
2017-07-24T03:05:09.815Z,14.50
2017-07-24T03:07:38.125Z,14.60
2017-07-24T03:10:05.641Z,14.70
2017-07-24T03:12:33.171Z,14.70
2017-07-24T03:15:00.682Z,14.80
2017-07-24T03:17:28.201Z,14.90
2017-07-24T03:19:55.739Z,14.80
2017-07-24T03:22:23.257Z,14.90
2017-07-24T03:24:51.558Z,15.10
2017-07-24T03:27:19.072Z,15.00
2017-07-24T03:29:46.627Z,15.10
2017-07-24T03:32:14.147Z,15.20
2017-07-24T03:34:41.679Z,15.20
2017-07-24T03:37:09.203Z,15.30
2017-07-24T03:39:37.522Z,15.30
2017-07-24T03:42:05.048Z,15.20
2017-07-24T03:44:33.319Z,15.20
2017-07-24T03:47:00.856Z,15.20
2017-07-24T03:49:28.364Z,15.20
2017-07-24T03:51:55.904Z,15.20
2017-07-24T03:54:24.199Z,15.30
2017-07-24T03:56:51.732Z,15.40
2017-07-24T03:59:19.236Z,15.40
2017-07-24T04:01:47.746Z,15.30
2017-07-24T04:04:15.267Z,15.40
2017-07-24T04:06:42.795Z,15.40
2017-07-24T04:09:11.071Z,15.40
2017-07-24T04:11:39.383Z,15.40
2017-07-24T04:14:06.909Z,15.40
2017-07-24T04:16:35.241Z,15.40
2017-07-24T04:19:02.776Z,15.40
2017-07-24T04:21:30.324Z,15.50
2017-07-24T04:23:57.862Z,15.60
2017-07-24T04:26:26.137Z,15.60
2017-07-24T04:28:54.427Z,15.60
2017-07-24T04:31:21.939Z,15.50
2017-07-24T04:33:49.482Z,15.70
2017-07-24T04:36:17.009Z,15.70
2017-07-24T04:38:44.549Z,15.70
2017-07-24T04:41:12.064Z,15.70
2017-07-24T04:43:39.600Z,15.90
2017-07-24T04:46:07.108Z,16.00
2017-07-24T04:48:34.626Z,16.00
2017-07-24T04:51:02.201Z,16.10
2017-07-24T04:53:29.706Z,16.30
2017-07-24T04:55:58.009Z,16.40
2017-07-24T04:58:25.516Z,16.40
2017-07-24T05:00:53.037Z,16.60
2017-07-24T05:03:20.544Z,16.70
2017-07-24T05:05:48.840Z,16.80
2017-07-24T05:08:16.352Z,16.80
2017-07-24T05:10:43.875Z,16.90
2017-07-24T05:13:11.403Z,16.90
2017-07-24T05:15:39.694Z,16.90
2017-07-24T05:18:07.216Z,16.90
2017-07-24T05:20:34.742Z,17.00
2017-07-24T05:23:02.255Z,16.90
2017-07-24T05:25:30.572Z,17.00
2017-07-24T05:27:58.089Z,17.00
2017-07-24T05:30:26.359Z,16.90
2017-07-24T05:32:53.907Z,16.90
2017-07-24T05:35:21.437Z,17.00
2017-07-24T05:37:48.976Z,17.10
2017-07-24T05:40:16.493Z,17.00
2017-07-24T05:42:44.024Z,17.10
2017-07-24T05:45:11.536Z,17.10
2017-07-24T05:47:39.073Z,17.20
2017-07-24T05:50:07.352Z,17.50
2017-07-24T05:52:35.660Z,17.60
2017-07-24T05:55:03.176Z,17.50
2017-07-24T05:57:30.711Z,17.70
2017-07-24T05:59:58.227Z,17.70
2017-07-24T06:02:25.744Z,17.90
2017-07-24T06:04:53.293Z,17.80
2017-07-24T06:07:20.816Z,18.10
2017-07-24T06:09:48.351Z,18.10
2017-07-24T06:12:15.872Z,18.20
2017-07-24T06:14:43.424Z,18.30
2017-07-24T06:17:10.940Z,18.50
2017-07-24T06:19:38.472Z,18.70
2017-07-24T06:22:06.769Z,19.00
2017-07-24T06:24:34.298Z,19.00
2017-07-24T06:27:01.812Z,18.90
2017-07-24T06:29:29.344Z,18.90
2017-07-24T06:31:56.854Z,19.30
2017-07-24T06:34:24.355Z,19.40
2017-07-24T06:36:53.838Z,19.70
2017-07-24T06:39:22.137Z,19.90
2017-07-24T06:41:49.677Z,19.80
2017-07-24T06:44:17.952Z,19.60
2017-07-24T06:46:46.240Z,19.50
2017-07-24T06:49:14.531Z,19.50
2017-07-24T06:51:42.062Z,19.50
2017-07-24T06:54:09.577Z,19.50
2017-07-24T06:56:37.114Z,19.40
2017-07-24T06:59:04.640Z,19.40
2017-07-24T07:01:32.956Z,19.40
2017-07-24T07:04:00.480Z,19.40
2017-07-24T07:06:28.757Z,19.60
2017-07-24T07:08:57.108Z,19.80
2017-07-24T07:11:24.654Z,19.80
2017-07-24T07:13:52.156Z,19.80
2017-07-24T07:16:19.689Z,20.00
2017-07-24T07:18:47.204Z,20.20
2017-07-24T07:21:14.761Z,20.40
2017-07-24T07:23:42.276Z,20.60
2017-07-24T07:26:09.845Z,20.70
2017-07-24T07:28:38.121Z,20.60
2017-07-24T07:31:06.458Z,20.60
2017-07-24T07:33:33.972Z,20.70
2017-07-24T07:36:01.492Z,20.90
2017-07-24T07:38:29.036Z,21.60
2017-07-24T07:40:56.551Z,22.20
2017-07-24T07:43:24.076Z,22.80
2017-07-24T07:45:51.600Z,23.30
2017-07-24T07:48:19.120Z,23.50
2017-07-24T07:50:46.631Z,23.20
2017-07-24T07:53:14.280Z,22.80
2017-07-24T07:55:41.804Z,22.60
2017-07-24T07:58:09.344Z,22.60
2017-07-24T08:00:37.616Z,22.60
2017-07-24T08:05:43.091Z,22.80
2017-07-24T08:08:11.374Z,23.20
2017-07-24T08:10:38.900Z,23.20
2017-07-24T08:13:06.416Z,23.50
2017-07-24T08:15:33.941Z,23.70
2017-07-24T08:18:02.228Z,24.10
2017-07-24T08:20:29.756Z,24.10
2017-07-24T08:22:57.268Z,24.00
2017-07-24T08:25:24.809Z,23.60
2017-07-24T08:27:52.328Z,23.30
2017-07-24T08:30:19.868Z,22.90
2017-07-24T08:32:47.377Z,22.80
2017-07-24T08:35:14.896Z,23.00
2017-07-24T08:37:42.420Z,23.00
2017-07-24T08:40:09.933Z,22.80
2017-07-24T08:42:38.252Z,22.20
2017-07-24T08:45:05.773Z,22.20
2017-07-24T08:47:34.096Z,21.70
2017-07-24T08:50:01.617Z,21.60
2017-07-24T08:52:29.207Z,21.70
2017-07-24T08:54:56.714Z,21.90
2017-07-24T08:57:24.280Z,21.90
2017-07-24T08:59:52.563Z,22.10
2017-07-24T09:02:20.836Z,22.00
2017-07-24T09:04:49.148Z,22.30
2017-07-24T09:07:16.678Z,22.30
2017-07-24T09:09:44.968Z,22.10
2017-07-24T09:12:13.430Z,22.10
2017-07-24T09:14:40.964Z,21.90
2017-07-24T09:17:08.472Z,21.80
2017-07-24T09:19:36.003Z,21.90
2017-07-24T09:22:04.300Z,21.90
2017-07-24T09:24:31.867Z,21.90
2017-07-24T09:26:59.388Z,21.50
2017-07-24T09:29:27.677Z,21.40
2017-07-24T09:31:55.228Z,21.40
2017-07-24T09:34:23.532Z,21.40
2017-07-24T09:36:51.072Z,21.40
2017-07-24T09:39:18.596Z,21.40
2017-07-24T09:41:46.159Z,21.30
2017-07-24T09:44:13.664Z,21.10
2017-07-24T09:46:41.200Z,21.00
2017-07-24T09:49:09.480Z,20.90
2017-07-24T09:51:37.020Z,20.90
2017-07-24T09:54:04.540Z,20.80
2017-07-24T09:56:32.076Z,20.90
2017-07-24T09:58:59.633Z,20.90
2017-07-24T10:01:27.152Z,20.90
2017-07-24T10:03:54.688Z,20.90
2017-07-24T10:06:22.201Z,20.80
2017-07-24T10:08:49.729Z,20.60
2017-07-24T10:11:17.254Z,20.40
2017-07-24T10:13:44.828Z,20.00
2017-07-24T10:16:12.338Z,19.80
2017-07-24T10:18:39.857Z,19.60
2017-07-24T10:21:07.395Z,19.50
2017-07-24T10:23:34.909Z,19.50
2017-07-24T10:26:02.443Z,19.50
2017-07-24T10:28:29.956Z,19.50
2017-07-24T10:30:57.484Z,19.60
2017-07-24T10:33:25.768Z,19.90
2017-07-24T10:35:53.318Z,19.90
2017-07-24T10:38:21.610Z,20.50
2017-07-24T10:40:49.137Z,20.50
2017-07-24T10:43:17.468Z,21.10
2017-07-24T10:45:44.980Z,21.00
2017-07-24T10:48:12.512Z,21.00
2017-07-24T10:50:40.032Z,20.80
2017-07-24T10:53:07.579Z,20.80
2017-07-24T10:55:35.082Z,20.60
2017-07-24T10:58:02.616Z,20.50
2017-07-24T11:00:30.125Z,20.20
2017-07-24T11:02:58.417Z,19.70
2017-07-24T11:05:25.961Z,19.70
2017-07-24T11:07:54.244Z,19.40
2017-07-24T11:10:21.788Z,19.40
2017-07-24T11:12:49.294Z,19.20
2017-07-24T11:15:16.853Z,19.20
2017-07-24T11:17:44.453Z,19.20
2017-07-24T11:20:11.990Z,19.60
2017-07-24T11:22:39.505Z,20.20
2017-07-24T11:25:07.812Z,20.60
2017-07-24T11:27:35.330Z,20.50
2017-07-24T11:30:02.869Z,20.30
2017-07-24T11:32:31.235Z,19.90
2017-07-24T11:34:58.749Z,19.60
2017-07-24T11:37:26.269Z,19.30
2017-07-24T11:39:53.781Z,19.10
2017-07-24T11:42:21.357Z,18.90
2017-07-24T11:44:48.881Z,18.80
2017-07-24T11:47:16.423Z,18.80
2017-07-24T11:49:43.949Z,18.90
2017-07-24T11:52:11.479Z,18.90
2017-07-24T11:54:38.989Z,19.00
2017-07-24T11:57:07.308Z,19.40
2017-07-24T11:59:34.835Z,19.30
2017-07-24T12:02:03.150Z,19.70
2017-07-24T12:04:30.657Z,19.70
2017-07-24T12:06:58.180Z,19.70
2017-07-24T12:09:25.682Z,19.60
2017-07-24T12:11:53.983Z,19.30
2017-07-24T12:14:21.510Z,19.30
2017-07-24T12:16:49.820Z,19.00
2017-07-24T12:19:17.340Z,18.90
2017-07-24T12:21:44.872Z,18.70
2017-07-24T12:24:12.391Z,18.70
2017-07-24T12:26:39.920Z,18.70
2017-07-24T12:29:08.195Z,19.10
2017-07-24T12:31:36.545Z,19.30
2017-07-24T12:34:04.064Z,19.30
2017-07-24T12:36:31.580Z,19.70
2017-07-24T12:38:59.118Z,19.80
2017-07-24T12:41:26.634Z,20.00
2017-07-24T12:43:54.169Z,19.90
2017-07-24T12:46:22.454Z,19.90
2017-07-24T12:48:50.776Z,19.70
2017-07-24T12:51:18.287Z,19.70
2017-07-24T12:53:46.590Z,19.40
2017-07-24T12:56:14.112Z,19.40
2017-07-24T12:58:41.639Z,19.60
2017-07-24T13:01:09.160Z,19.70
2017-07-24T13:03:36.741Z,19.70
2017-07-24T13:06:04.785Z,19.50
2017-07-24T13:08:32.332Z,19.30
2017-07-24T13:11:00.607Z,19.20
2017-07-24T13:13:28.911Z,19.20
2017-07-24T13:15:56.416Z,19.20
2017-07-24T13:18:23.939Z,19.10
2017-07-24T13:20:51.471Z,19.00
2017-07-24T13:23:18.997Z,19.00
2017-07-24T13:25:46.525Z,18.90
2017-07-24T13:28:14.053Z,19.00
2017-07-24T13:30:41.576Z,19.00
2017-07-24T13:33:09.120Z,18.50
2017-07-24T13:35:36.629Z,17.40
2017-07-24T13:38:04.156Z,16.30
2017-07-24T13:40:31.741Z,15.50
2017-07-24T13:42:59.259Z,15.10
2017-07-24T13:45:27.598Z,15.00
2017-07-24T13:47:55.145Z,15.00
2017-07-24T13:50:22.701Z,14.90
2017-07-24T13:52:50.220Z,14.90
2017-07-24T13:55:18.535Z,15.00
2017-07-24T13:57:46.051Z,15.00
2017-07-24T14:00:13.599Z,15.10
2017-07-24T14:02:41.115Z,15.20
2017-07-24T14:05:08.656Z,15.30
2017-07-24T14:07:36.179Z,15.50
2017-07-24T14:10:03.717Z,15.60
2017-07-24T14:12:31.299Z,15.80
2017-07-24T14:14:58.826Z,16.00
2017-07-24T14:17:26.371Z,16.30
2017-07-24T14:19:53.915Z,16.30
2017-07-24T14:22:21.468Z,16.30
2017-07-24T14:24:48.997Z,16.30
2017-07-24T14:27:16.500Z,16.40
2017-07-24T14:29:44.027Z,16.40
2017-07-24T14:32:13.127Z,16.60
2017-07-24T14:34:41.440Z,16.70
2017-07-24T14:37:08.944Z,16.70
2017-07-24T14:39:36.503Z,16.70
2017-07-24T14:42:04.017Z,16.80
2017-07-24T14:44:31.528Z,16.70
2017-07-24T14:46:59.058Z,16.80
2017-07-24T14:49:26.571Z,16.80
2017-07-24T14:51:54.126Z,16.80
2017-07-24T14:54:22.404Z,16.70
2017-07-24T14:56:49.939Z,16.70
2017-07-24T14:59:17.449Z,16.70
2017-07-24T15:01:45.004Z,16.80
2017-07-24T15:04:12.527Z,16.70
2017-07-24T15:06:40.820Z,16.80
2017-07-24T15:09:08.353Z,16.80
2017-07-24T15:11:37.566Z,16.60
2017-07-24T15:14:05.868Z,16.50
2017-07-24T15:16:33.419Z,16.50
2017-07-24T15:19:00.929Z,16.50
2017-07-24T15:21:28.465Z,16.50
2017-07-24T15:23:55.981Z,16.50
2017-07-24T15:26:23.889Z,16.60
2017-07-24T15:28:51.413Z,16.60
2017-07-24T15:31:18.946Z,16.60
2017-07-24T15:33:46.452Z,16.60
2017-07-24T15:36:13.984Z,16.60
2017-07-24T15:38:41.495Z,16.70
2017-07-24T15:41:09.004Z,16.70
2017-07-24T15:43:36.532Z,16.70
2017-07-24T15:46:04.057Z,16.80
2017-07-24T15:48:31.591Z,16.90
2017-07-24T15:50:59.100Z,17.00
2017-07-24T15:53:26.628Z,17.00
2017-07-24T15:55:54.140Z,17.10
2017-07-24T15:58:22.440Z,17.10
2017-07-24T16:00:49.962Z,17.00
2017-07-24T16:03:18.260Z,17.30
2017-07-24T16:05:45.772Z,17.30
2017-07-24T16:08:13.297Z,17.50
2017-07-24T16:10:40.820Z,17.60
2017-07-24T16:13:08.361Z,17.80
2017-07-24T16:15:35.893Z,18.10
2017-07-24T16:18:03.424Z,18.30
2017-07-24T16:20:31.717Z,18.30
2017-07-24T16:22:59.263Z,18.40
2017-07-24T16:25:26.777Z,18.40
2017-07-24T16:27:54.328Z,18.50
2017-07-24T16:30:22.699Z,18.40
2017-07-24T16:32:50.228Z,18.50
2017-07-24T16:35:17.759Z,18.60
2017-07-24T16:37:45.292Z,18.50
2017-07-24T16:40:12.820Z,18.50
2017-07-24T16:42:40.324Z,18.50
2017-07-24T16:45:07.881Z,18.50
2017-07-24T16:47:36.169Z,18.40
2017-07-24T16:50:03.681Z,18.40
2017-07-24T16:52:31.224Z,18.50
2017-07-24T16:54:58.742Z,18.50
2017-07-24T16:57:26.279Z,18.40
2017-07-24T16:59:53.789Z,18.50
2017-07-24T17:02:21.355Z,18.30
2017-07-24T17:04:48.868Z,18.30
2017-07-24T17:07:17.146Z,18.30
2017-07-24T17:09:44.675Z,18.30
2017-07-24T17:12:13.068Z,18.30
2017-07-24T17:14:40.624Z,18.50
2017-07-24T17:17:08.141Z,18.60
2017-07-24T17:19:35.679Z,18.60
2017-07-24T17:22:03.208Z,18.50
2017-07-24T17:24:31.511Z,18.50
2017-07-24T17:26:59.020Z,18.40
2017-07-24T17:29:26.547Z,18.40
2017-07-24T17:31:54.092Z,18.40
2017-07-24T17:34:21.604Z,18.30
2017-07-24T17:36:49.140Z,18.20
2017-07-24T17:39:16.638Z,18.10
2017-07-24T17:41:44.188Z,18.00
2017-07-24T17:44:12.472Z,17.90
2017-07-24T17:46:40.747Z,17.80
2017-07-24T17:49:09.044Z,17.70
2017-07-24T17:51:36.552Z,17.70
2017-07-24T17:54:04.081Z,17.60
2017-07-24T17:56:31.593Z,17.50
2017-07-24T17:58:59.915Z,17.40
2017-07-24T18:01:27.419Z,17.30
2017-07-24T18:03:55.042Z,17.40
2017-07-24T18:06:22.576Z,17.30
2017-07-24T18:08:50.091Z,17.20
2017-07-24T18:11:17.629Z,17.20
2017-07-24T18:13:45.140Z,17.20
2017-07-24T18:16:13.461Z,17.20
2017-07-24T18:18:40.976Z,17.20
2017-07-24T18:21:09.305Z,17.10
2017-07-24T18:23:36.820Z,17.10
2017-07-24T18:26:04.336Z,17.00
2017-07-24T18:28:31.868Z,16.90
2017-07-24T18:30:59.384Z,16.80
2017-07-24T18:33:26.924Z,16.70
2017-07-24T18:35:54.434Z,16.60
2017-07-24T18:38:21.967Z,16.50
2017-07-24T18:40:49.473Z,16.50
2017-07-24T18:43:17.005Z,16.40
2017-07-24T18:45:44.519Z,16.40
2017-07-24T18:48:12.032Z,16.30
2017-07-24T18:50:39.563Z,16.20
2017-07-24T18:53:07.072Z,16.20
2017-07-24T18:55:34.600Z,16.10
2017-07-24T18:58:02.113Z,15.90
2017-07-24T19:00:30.408Z,15.60
2017-07-24T19:02:57.919Z,15.60
2017-07-24T19:05:25.478Z,15.50
2017-07-24T19:07:52.997Z,15.40
2017-07-24T19:10:20.536Z,15.20
2017-07-24T19:12:48.846Z,15.00
2017-07-24T19:15:16.367Z,15.00
2017-07-24T19:17:44.660Z,14.70
2017-07-24T19:20:12.183Z,14.70
2017-07-24T19:22:39.717Z,14.60
2017-07-24T19:25:07.228Z,14.50
2017-07-24T19:27:34.796Z,14.50
2017-07-24T19:30:02.321Z,14.60
2017-07-24T19:32:29.843Z,14.50
2017-07-24T19:34:57.403Z,14.50
2017-07-24T19:37:24.917Z,14.50
2017-07-24T19:39:53.222Z,14.50
2017-07-24T19:42:20.746Z,14.40
2017-07-24T19:44:49.057Z,14.50
2017-07-24T19:47:16.573Z,14.50
2017-07-24T19:49:44.130Z,14.50
2017-07-24T19:52:12.438Z,14.30
2017-07-24T19:54:39.969Z,14.20
2017-07-24T19:57:08.259Z,14.20
2017-07-24T19:59:36.560Z,14.10
2017-07-24T20:02:04.075Z,14.10
2017-07-24T20:04:31.645Z,14.10
2017-07-24T20:06:59.929Z,14.00
2017-07-24T20:09:28.226Z,14.00
2017-07-24T20:11:55.764Z,14.00
2017-07-24T20:14:23.290Z,13.90
2017-07-24T20:16:50.826Z,13.80
2017-07-24T20:19:18.360Z,13.80
2017-07-24T20:21:46.044Z,13.70
2017-07-24T20:24:13.561Z,13.60
2017-07-24T20:29:19.112Z,13.50
2017-07-24T20:31:47.428Z,13.60
2017-07-24T20:34:14.946Z,13.60
2017-07-24T20:36:43.256Z,13.70
2017-07-24T20:39:10.792Z,13.70
2017-07-24T20:41:38.344Z,13.70
2017-07-24T20:44:05.900Z,13.50
2017-07-24T20:46:33.426Z,13.40
2017-07-24T20:49:00.971Z,13.30
2017-07-24T20:51:28.606Z,13.20
2017-07-24T20:53:56.157Z,13.20
2017-07-24T20:56:23.717Z,13.20
2017-07-24T20:58:51.294Z,13.30
2017-07-24T21:01:18.849Z,13.30
2017-07-24T21:03:46.385Z,13.30
2017-07-24T21:06:17.356Z,13.40
2017-07-24T21:08:44.872Z,13.40
2017-07-24T21:11:13.161Z,13.50
2017-07-24T21:13:40.699Z,13.50
2017-07-24T21:16:08.229Z,13.60
2017-07-24T21:18:35.753Z,13.60
2017-07-24T21:21:03.279Z,13.70
2017-07-24T21:23:31.588Z,13.70
2017-07-24T21:25:59.115Z,13.70
2017-07-24T21:28:27.394Z,13.70
2017-07-24T21:30:55.708Z,13.70
2017-07-24T21:33:23.253Z,13.70
2017-07-24T21:35:50.833Z,13.60
2017-07-24T21:38:18.365Z,13.50
2017-07-24T21:40:45.884Z,13.50
2017-07-24T21:43:13.407Z,13.40
2017-07-24T21:45:40.928Z,13.30
2017-07-24T21:48:08.506Z,13.20
2017-07-24T21:50:36.017Z,13.00
2017-07-24T21:53:03.561Z,12.90
2017-07-24T21:55:31.072Z,12.80
2017-07-24T21:57:59.373Z,12.50
2017-07-24T22:00:26.868Z,12.50
2017-07-24T22:02:54.461Z,12.50
2017-07-24T22:05:21.967Z,12.40
2017-07-24T22:07:49.505Z,12.40
2017-07-24T22:10:17.021Z,12.30
2017-07-24T22:12:44.559Z,12.20
2017-07-24T22:15:12.064Z,12.20
2017-07-24T22:17:39.567Z,12.20
2017-07-24T22:20:07.092Z,12.20
2017-07-24T22:22:34.602Z,12.20
2017-07-24T22:25:02.132Z,12.20
2017-07-24T22:27:29.635Z,12.20
2017-07-24T22:29:57.151Z,12.10
2017-07-24T22:32:24.676Z,12.20
2017-07-24T22:34:52.219Z,12.20
2017-07-24T22:37:20.499Z,12.40
2017-07-24T22:39:48.797Z,12.40
2017-07-24T22:42:16.304Z,12.40
2017-07-24T22:44:43.811Z,12.40
2017-07-24T22:47:11.349Z,12.40
2017-07-24T22:49:39.620Z,12.30
2017-07-24T22:52:07.147Z,12.30
2017-07-24T22:54:34.660Z,12.20
2017-07-24T22:57:02.184Z,12.20
2017-07-24T22:59:29.695Z,12.20
2017-07-24T23:01:57.236Z,12.20
2017-07-24T23:04:24.747Z,12.20
2017-07-24T23:06:52.272Z,12.10
2017-07-24T23:09:19.793Z,12.10
2017-07-24T23:11:48.084Z,12.00
2017-07-24T23:14:15.600Z,11.90
2017-07-24T23:16:43.143Z,12.00
2017-07-24T23:19:10.664Z,11.90
2017-07-24T23:21:38.195Z,11.90
2017-07-24T23:24:06.471Z,11.70
2017-07-24T23:26:34.749Z,11.60
2017-07-24T23:29:03.052Z,11.60
2017-07-24T23:31:30.559Z,11.50
2017-07-24T23:33:58.079Z,11.50
2017-07-24T23:36:25.597Z,11.40
2017-07-24T23:38:53.116Z,11.30
2017-07-24T23:41:20.632Z,11.30
2017-07-24T23:43:48.924Z,11.30
2017-07-24T23:46:16.448Z,11.20
2017-07-24T23:48:43.976Z,11.30
2017-07-24T23:51:11.485Z,11.20
2017-07-24T23:53:39.776Z,11.20
2017-07-24T23:56:07.277Z,11.20
2017-07-24T23:58:34.793Z,11.20
